Bible Grove, Illinois
Current Conditions -  °F | °C
As of 4:55 PM on Friday 31 Oct 2014 (Local Time) from KFOA Reporting Station
Clear Clear  
Wind Chill:   Ceiling: Unl
Heat Index:   Visibility: 10mi
Dew Point: -4°   Wind: 23mph
Humidity: 47%   Direction: 330°NNW
Pressure: 30.22"   Gusts: 32mph
Location:  38.8267°N, 88.5024°W
Report Text: KFOA 312155Z AUTO 33020G28KT 10SM CLR 07/M04 A3022 RMK AO2 T00651041
Loading
Personal Weather Stations






























Interactive Weather Map
Tropical Storm Tracking
New forecast layout! Learn more

10-Day Weather Forecast

Advertisements
Track Severe Weather on mobile